Time;durP1;ratioP1;P1;durP2;ratioP2;P2;SDS_P1;SDS_P2;PMS_P1;PMS_P2;Temp;Humidity;BMP_temperature;BMP_pressure;BME280_temperature;BME280_humidity;BME280_pressure;Samples;Min_cycle;Max_cycle;Signal;HPM_P1;HPM_P2
2023/07/27 00:00:29;;;;;;;14.07;11.45;;;;;;;-148.88;100.00;-17125.47;5032778;28;20071;-85
2023/07/27 00:02:54;;;;;;;14.77;11.27;;;;;;;-148.88;100.00;-17125.47;5034211;28;20042;-85
2023/07/27 00:05:19;;;;;;;14.80;11.50;;;;;;;-148.88;100.00;-17125.47;5016389;22;1175985;-74
2023/07/27 00:07:45;;;;;;;16.52;11.80;;;;;;;-148.88;100.00;-17125.47;5034456;28;20116;-74
2023/07/27 00:10:10;;;;;;;13.48;11.15;;;;;;;-148.88;100.00;-17125.47;5034480;28;20056;-73
2023/07/27 00:12:35;;;;;;;13.95;11.40;;;;;;;-148.88;100.00;-17125.47;5034376;28;20442;-73
2023/07/27 00:15:01;;;;;;;15.00;10.85;;;;;;;-148.88;100.00;-17125.47;5034703;28;20037;-73
2023/07/27 00:17:26;;;;;;;14.27;10.70;;;;;;;-148.88;100.00;-17125.47;5034461;28;20108;-73
2023/07/27 00:19:51;;;;;;;12.57;10.45;;;;;;;-148.88;100.00;-17125.47;5034401;28;20018;-73
2023/07/27 00:22:17;;;;;;;14.30;10.75;;;;;;;-148.88;100.00;-17125.47;5034538;28;20030;-73
2023/07/27 00:24:42;;;;;;;14.02;10.88;;;;;;;-148.88;100.00;-17125.47;5034699;28;20064;-73
2023/07/27 00:27:07;;;;;;;12.20;10.30;;;;;;;-148.88;100.00;-17125.47;5034353;28;20040;-73
2023/07/27 00:29:33;;;;;;;16.40;10.80;;;;;;;-148.88;100.00;-17125.47;5033996;28;20033;-73
2023/07/27 00:31:58;;;;;;;12.32;10.30;;;;;;;-148.88;100.00;-17125.47;5034525;28;20391;-73
2023/07/27 00:34:23;;;;;;;12.63;10.07;;;;;;;-148.88;100.00;-17125.47;5033926;28;20052;-73
2023/07/27 00:36:49;;;;;;;13.68;9.95;;;;;;;-148.88;100.00;-17125.47;5033773;28;20020;-73
2023/07/27 00:39:14;;;;;;;13.32;10.18;;;;;;;-148.88;100.00;-17125.47;5033835;28;20030;-73
2023/07/27 00:41:41;;;;;;;12.55;9.98;;;;;;;-148.88;100.00;-17125.47;5032560;28;20021;-74
2023/07/27 00:44:07;;;;;;;12.40;9.73;;;;;;;-148.88;100.00;-17125.47;5033978;28;20476;-74
2023/07/27 00:46:33;;;;;;;13.13;9.32;;;;;;;-148.88;100.00;-17125.47;5033408;28;20037;-74
2023/07/27 00:48:58;;;;;;;12.80;9.30;;;;;;;-148.88;100.00;-17125.47;5033741;28;20029;-73
2023/07/27 00:51:23;;;;;;;15.90;9.80;;;;;;;-148.88;100.00;-17125.47;5033964;28;20029;-73
2023/07/27 00:53:49;;;;;;;12.27;9.77;;;;;;;-148.88;100.00;-17125.47;5032540;28;20025;-73
2023/07/27 00:56:14;;;;;;;13.60;9.55;;;;;;;-148.88;100.00;-17125.47;5033565;28;20020;-74
2023/07/27 00:58:42;;;;;;;13.40;9.77;;;;;;;-148.88;100.00;-17125.47;5033797;28;20025;-73
2023/07/27 01:01:07;;;;;;;13.20;9.45;;;;;;;-148.88;100.00;-17125.47;5034024;28;20164;-74
2023/07/27 01:03:33;;;;;;;12.10;9.35;;;;;;;-148.88;100.00;-17125.47;5033983;28;20108;-73
2023/07/27 01:05:59;;;;;;;12.00;9.45;;;;;;;-148.88;100.00;-17125.47;5034758;28;20155;-73
2023/07/27 01:08:24;;;;;;;13.68;9.60;;;;;;;-148.88;100.00;-17125.47;5033312;28;20337;-74
2023/07/27 01:11:02;;;;;;;10.93;9.20;;;;;;;-148.88;100.00;-17125.47;5033525;28;20033;-74
2023/07/27 01:14:00;;;;;;;10.60;9.15;;;;;;;-148.88;100.00;-17125.47;5032056;28;20025;-73
2023/07/27 01:17:08;;;;;;;10.63;8.70;;;;;;;-148.88;100.00;-17125.47;5033352;28;20025;-73
2023/07/27 01:19:46;;;;;;;12.57;9.38;;;;;;;-148.88;100.00;-17125.47;4970328;28;20045;-74
2023/07/27 01:22:20;;;;;;;11.98;9.38;;;;;;;-148.88;100.00;-17125.47;5033538;28;20164;-73
2023/07/27 01:25:13;;;;;;;12.18;8.93;;;;;;;-148.88;100.00;-17125.47;5033414;28;20480;-73
2023/07/27 01:27:51;;;;;;;12.45;9.32;;;;;;;-148.88;100.00;-17125.47;5031756;28;20088;-73
2023/07/27 01:30:28;;;;;;;10.50;8.63;;;;;;;-148.88;100.00;-17125.47;5033695;28;20029;-73
2023/07/27 01:33:04;;;;;;;12.23;8.63;;;;;;;-148.88;100.00;-17125.47;5032878;28;20047;-74
2023/07/27 01:35:59;;;;;;;8.80;7.55;;;;;;;-148.88;100.00;-17125.47;5033060;28;20040;-73
2023/07/27 01:38:26;;;;;;;10.48;7.63;;;;;;;-148.88;100.00;-17125.47;5028861;28;20049;-73
2023/07/27 01:40:54;;;;;;;22.08;8.32;;;;;;;-148.88;100.00;-17125.47;5032922;28;20025;-73
2023/07/27 01:43:20;;;;;;;12.13;7.85;;;;;;;-148.88;100.00;-17125.47;5032889;28;20392;-74
2023/07/27 01:45:46;;;;;;;10.75;8.00;;;;;;;-148.88;100.00;-17125.47;5033150;28;20032;-73
2023/07/27 01:48:15;;;;;;;11.13;8.00;;;;;;;-148.88;100.00;-17125.47;5032868;28;20033;-73
2023/07/27 01:50:41;;;;;;;12.32;8.00;;;;;;;-148.88;100.00;-17125.47;5031874;28;20022;-73
2023/07/27 01:53:07;;;;;;;13.77;8.73;;;;;;;-148.88;100.00;-17125.47;5032920;28;20075;-73
2023/07/27 01:55:34;;;;;;;11.27;7.55;;;;;;;-148.88;100.00;-17125.47;5032755;28;20022;-73
2023/07/27 01:58:01;;;;;;;9.52;7.68;;;;;;;-148.88;100.00;-17125.47;5035996;28;20490;-74
2023/07/27 02:00:28;;;;;;;11.70;7.78;;;;;;;-148.88;100.00;-17125.47;5035703;28;20025;-73
2023/07/27 02:02:57;;;;;;;9.70;7.65;;;;;;;-148.88;100.00;-17125.47;5037098;28;20017;-73
2023/07/27 02:05:23;;;;;;;10.85;7.80;;;;;;;-148.88;100.00;-17125.47;5072219;22;20044;-85
2023/07/27 02:07:48;;;;;;;9.73;7.53;;;;;;;-148.88;100.00;-17125.47;5057226;28;20387;-84
2023/07/27 02:10:17;;;;;;;8.90;6.40;;;;;;;-148.88;100.00;-17125.47;5057301;28;20017;-85
2023/07/27 02:12:47;;;;;;;9.18;7.40;;;;;;;-148.88;100.00;-17125.47;5072556;28;20029;-84
2023/07/27 02:15:23;;;;;;;10.30;7.32;;;;;;;-148.88;100.00;-17125.47;5056730;28;20384;-85
2023/07/27 02:17:55;;;;;;;10.95;8.15;;;;;;;-148.88;100.00;-17125.47;5071809;22;20136;-73
2023/07/27 02:20:22;;;;;;;7.75;6.75;;;;;;;-148.88;100.00;-17125.47;5017397;28;20041;-73
2023/07/27 02:22:48;;;;;;;10.48;7.32;;;;;;;-148.88;100.00;-17125.47;5016631;28;20060;-73
2023/07/27 02:25:14;;;;;;;8.07;6.32;;;;;;;-148.88;100.00;-17125.47;5016604;28;20101;-73
2023/07/27 02:27:39;;;;;;;7.90;6.03;;;;;;;-148.88;100.00;-17125.47;5016654;28;20460;-73
2023/07/27 02:30:05;;;;;;;10.00;7.00;;;;;;;-148.88;100.00;-17125.47;5015412;28;20439;-74
2023/07/27 02:32:32;;;;;;;9.10;6.82;;;;;;;-148.88;100.00;-17125.47;5016521;28;20084;-73
2023/07/27 02:34:57;;;;;;;11.07;6.53;;;;;;;-148.88;100.00;-17125.47;5016607;28;20029;-73
2023/07/27 02:37:23;;;;;;;8.27;6.65;;;;;;;-148.88;100.00;-17125.47;5016348;28;20038;-73
2023/07/27 02:39:48;;;;;;;7.40;6.32;;;;;;;-148.88;100.00;-17125.47;5016512;28;20022;-73
2023/07/27 02:42:14;;;;;;;9.75;6.80;;;;;;;-148.88;100.00;-17125.47;5016433;28;20113;-73
2023/07/27 02:44:39;;;;;;;9.48;6.72;;;;;;;-148.88;100.00;-17125.47;5016341;28;20032;-75
2023/07/27 02:47:05;;;;;;;8.40;6.40;;;;;;;-148.88;100.00;-17125.47;5016277;28;20026;-74
2023/07/27 02:49:30;;;;;;;7.47;6.03;;;;;;;-148.88;100.00;-17125.47;5016340;28;20029;-74
2023/07/27 02:51:55;;;;;;;9.52;6.60;;;;;;;-148.88;100.00;-17125.47;5014970;28;20496;-74
2023/07/27 02:54:21;;;;;;;8.23;6.10;;;;;;;-148.88;100.00;-17125.47;5016164;28;20447;-74
2023/07/27 02:56:48;;;;;;;10.98;6.05;;;;;;;-148.88;100.00;-17125.47;5015989;28;20370;-74
2023/07/27 02:59:13;;;;;;;10.52;6.35;;;;;;;-148.88;100.00;-17125.47;5016157;28;20029;-74
2023/07/27 03:01:38;;;;;;;11.00;6.35;;;;;;;-148.88;100.00;-17125.47;5016034;28;20508;-74
2023/07/27 03:04:04;;;;;;;9.18;6.28;;;;;;;-148.88;100.00;-17125.47;5016586;28;20053;-74
2023/07/27 03:06:29;;;;;;;9.95;6.30;;;;;;;-148.88;100.00;-17125.47;5015907;28;20033;-74
2023/07/27 03:08:55;;;;;;;8.68;6.10;;;;;;;-148.88;100.00;-17125.47;5016155;28;20102;-74
2023/07/27 03:11:20;;;;;;;9.05;6.20;;;;;;;-148.88;100.00;-17125.47;5017408;28;20104;-74
2023/07/27 03:13:45;;;;;;;8.43;5.68;;;;;;;-148.88;100.00;-17125.47;5016430;28;20050;-74
2023/07/27 03:16:11;;;;;;;7.57;6.25;;;;;;;-148.88;100.00;-17125.47;5015815;28;20024;-73
2023/07/27 03:18:36;;;;;;;7.63;6.28;;;;;;;-148.88;100.00;-17125.47;5015681;28;20099;-74
2023/07/27 03:21:04;;;;;;;7.95;5.95;;;;;;;-148.88;100.00;-17125.47;5016252;28;20108;-74
2023/07/27 03:23:30;;;;;;;10.50;6.10;;;;;;;-148.88;100.00;-17125.47;5015611;28;20099;-74
2023/07/27 03:25:57;;;;;;;8.93;5.97;;;;;;;-148.88;100.00;-17125.47;5015627;28;20018;-74
2023/07/27 03:28:23;;;;;;;7.10;5.43;;;;;;;-148.88;100.00;-17125.47;5015507;28;20033;-74
2023/07/27 03:30:48;;;;;;;8.88;5.70;;;;;;;-148.88;100.00;-17125.47;5015508;28;20022;-74
2023/07/27 03:33:13;;;;;;;7.43;5.72;;;;;;;-148.88;100.00;-17125.47;5015483;28;20028;-74
2023/07/27 03:35:40;;;;;;;6.78;5.20;;;;;;;-148.88;100.00;-17125.47;5015340;28;20076;-74
2023/07/27 03:38:07;;;;;;;10.00;5.90;;;;;;;-148.88;100.00;-17125.47;5014020;28;20038;-74
2023/07/27 03:40:33;;;;;;;9.38;5.60;;;;;;;-148.88;100.00;-17125.47;5015354;28;20052;-74
2023/07/27 03:42:58;;;;;;;8.35;5.45;;;;;;;-148.88;100.00;-17125.47;5015298;28;20485;-74
2023/07/27 03:45:23;;;;;;;8.15;5.57;;;;;;;-148.88;100.00;-17125.47;5015583;28;20022;-74
2023/07/27 03:47:48;;;;;;;8.20;5.68;;;;;;;-148.88;100.00;-17125.47;5015874;28;20057;-74
2023/07/27 03:50:14;;;;;;;11.70;5.07;;;;;;;-148.88;100.00;-17125.47;5015947;28;20057;-74
2023/07/27 03:52:39;;;;;;;7.43;5.28;;;;;;;-148.88;100.00;-17125.47;5015101;28;20495;-74
2023/07/27 03:55:05;;;;;;;8.52;5.43;;;;;;;-148.88;100.00;-17125.47;5014023;28;20025;-74
2023/07/27 03:57:32;;;;;;;7.93;5.13;;;;;;;-148.88;100.00;-17125.47;5014819;28;20545;-74
2023/07/27 03:59:59;;;;;;;7.20;4.50;;;;;;;-148.88;100.00;-17125.47;5015183;28;20022;-74
2023/07/27 04:02:26;;;;;;;7.88;5.00;;;;;;;-148.88;100.00;-17125.47;5015108;28;20029;-74
2023/07/27 04:04:51;;;;;;;8.23;5.32;;;;;;;-148.88;100.00;-17125.47;5014791;28;20022;-74
2023/07/27 04:07:18;;;;;;;7.13;5.22;;;;;;;-148.88;100.00;-17125.47;5014765;28;20030;-74
2023/07/27 04:09:43;;;;;;;8.50;5.07;;;;;;;-148.88;100.00;-17125.47;5014693;28;20409;-75
2023/07/27 04:12:09;;;;;;;7.20;5.25;;;;;;;-148.88;100.00;-17125.47;5014647;28;20029;-74
2023/07/27 04:14:34;;;;;;;8.93;5.07;;;;;;;-148.88;100.00;-17125.47;5015203;28;20397;-72
2023/07/27 04:16:59;;;;;;;7.00;4.57;;;;;;;-148.88;100.00;-17125.47;5014368;28;20120;-73
2023/07/27 04:19:24;;;;;;;9.20;5.50;;;;;;;-148.88;100.00;-17125.47;5014333;28;20112;-73
2023/07/27 04:21:50;;;;;;;5.95;4.18;;;;;;;-148.88;100.00;-17125.47;5014459;28;20183;-72
2023/07/27 04:24:15;;;;;;;8.20;4.40;;;;;;;-148.88;100.00;-17125.47;5014453;28;20156;-72
2023/07/27 04:26:40;;;;;;;8.07;4.20;;;;;;;-148.88;100.00;-17125.47;5014363;28;20013;-72
2023/07/27 04:29:06;;;;;;;7.05;4.57;;;;;;;-148.88;100.00;-17125.47;5014397;28;20369;-72
2023/07/27 04:31:31;;;;;;;7.10;4.40;;;;;;;-148.88;100.00;-17125.47;5014409;28;20392;-73
2023/07/27 04:33:56;;;;;;;6.30;4.93;;;;;;;-148.88;100.00;-17125.47;5014873;28;20025;-73
2023/07/27 04:36:22;;;;;;;5.05;3.70;;;;;;;-148.88;100.00;-17125.47;5014114;28;20076;-72
2023/07/27 04:38:47;;;;;;;7.93;4.50;;;;;;;-148.88;100.00;-17125.47;5014508;28;20040;-72
2023/07/27 04:41:13;;;;;;;7.40;4.22;;;;;;;-148.88;100.00;-17125.47;5014147;28;20036;-73
2023/07/27 04:43:38;;;;;;;6.63;4.43;;;;;;;-148.88;100.00;-17125.47;5014082;28;20026;-74
2023/07/27 04:46:04;;;;;;;6.88;4.30;;;;;;;-148.88;100.00;-17125.47;5014578;28;20495;-74
2023/07/27 04:48:29;;;;;;;7.35;4.63;;;;;;;-148.88;100.00;-17125.47;5013967;28;20030;-74
2023/07/27 04:50:54;;;;;;;7.53;4.20;;;;;;;-148.88;100.00;-17125.47;5014009;28;20061;-74
2023/07/27 04:53:20;;;;;;;7.25;4.32;;;;;;;-148.88;100.00;-17125.47;5014017;28;20092;-74
2023/07/27 04:55:46;;;;;;;6.88;4.45;;;;;;;-148.88;100.00;-17125.47;5014380;28;20022;-74
2023/07/27 04:58:11;;;;;;;6.68;4.55;;;;;;;-148.88;100.00;-17125.47;5013821;28;20463;-74
2023/07/27 05:00:37;;;;;;;7.53;4.43;;;;;;;-148.88;100.00;-17125.47;5013914;28;20112;-73
2023/07/27 05:03:02;;;;;;;7.90;4.57;;;;;;;-148.88;100.00;-17125.47;5012514;28;20032;-74
2023/07/27 05:05:27;;;;;;;6.70;4.60;;;;;;;-148.88;100.00;-17125.47;5014055;28;20018;-74
2023/07/27 05:07:53;;;;;;;6.97;3.90;;;;;;;-148.88;100.00;-17125.47;5012411;28;20092;-74
2023/07/27 05:10:18;;;;;;;9.77;4.68;;;;;;;-148.88;100.00;-17125.47;5014001;28;20053;-74
2023/07/27 05:12:43;;;;;;;6.60;4.40;;;;;;;-148.88;100.00;-17125.47;5014201;28;20018;-74
2023/07/27 05:15:09;;;;;;;8.30;4.50;;;;;;;-148.88;100.00;-17125.47;5012715;28;20034;-74
2023/07/27 05:17:34;;;;;;;7.22;4.40;;;;;;;-148.88;100.00;-17125.47;5013538;28;20057;-74
2023/07/27 05:20:01;;;;;;;7.10;4.75;;;;;;;-148.88;100.00;-17125.47;5013617;28;20025;-74
2023/07/27 05:22:26;;;;;;;8.35;5.20;;;;;;;-148.88;100.00;-17125.47;5013525;28;20025;-74
2023/07/27 05:24:52;;;;;;;7.50;5.05;;;;;;;-148.88;100.00;-17125.47;5013999;28;20072;-74
2023/07/27 05:27:17;;;;;;;8.88;4.50;;;;;;;-148.88;100.00;-17125.47;5013394;28;20029;-74
2023/07/27 05:29:43;;;;;;;7.15;4.60;;;;;;;-148.88;100.00;-17125.47;5013980;28;20034;-74
2023/07/27 05:32:08;;;;;;;8.32;5.05;;;;;;;-148.88;100.00;-17125.47;5013379;28;20076;-74
2023/07/27 05:34:34;;;;;;;8.25;4.63;;;;;;;-148.88;100.00;-17125.47;5012011;28;20508;-74
2023/07/27 05:37:00;;;;;;;8.20;4.90;;;;;;;-148.88;100.00;-17125.47;5012058;28;20496;-73
2023/07/27 05:39:25;;;;;;;8.05;4.75;;;;;;;-148.88;100.00;-17125.47;5013268;28;20029;-75
2023/07/27 05:41:50;;;;;;;11.07;6.00;;;;;;;-148.88;100.00;-17125.47;5013357;28;20025;-74
2023/07/27 05:44:16;;;;;;;8.23;5.65;;;;;;;-148.88;100.00;-17125.47;5013282;28;20485;-74
2023/07/27 05:46:41;;;;;;;9.65;5.53;;;;;;;-148.88;100.00;-17125.47;5013595;28;20018;-74
2023/07/27 05:49:07;;;;;;;8.45;5.63;;;;;;;-148.88;100.00;-17125.47;5014122;28;20122;-75
2023/07/27 05:51:32;;;;;;;9.73;5.90;;;;;;;-148.88;100.00;-17125.47;5013304;28;20033;-74
2023/07/27 05:53:57;;;;;;;10.93;6.05;;;;;;;-148.88;100.00;-17125.47;5013150;28;20485;-74
2023/07/27 05:56:23;;;;;;;11.85;6.47;;;;;;;-148.88;100.00;-17125.47;5013205;28;20033;-74
2023/07/27 05:58:48;;;;;;;10.43;6.47;;;;;;;-148.88;100.00;-17125.47;5011729;28;20030;-74
2023/07/27 06:01:16;;;;;;;12.18;7.00;;;;;;;-148.88;100.00;-17125.47;5013443;28;20024;-74
2023/07/27 06:03:41;;;;;;;8.32;6.38;;;;;;;-148.88;100.00;-17125.47;5013018;28;20025;-74
2023/07/27 06:06:07;;;;;;;10.73;6.75;;;;;;;-148.88;100.00;-17125.47;5012935;28;20022;-74
2023/07/27 06:08:33;;;;;;;13.65;6.53;;;;;;;-148.88;100.00;-17125.47;5011663;28;20025;-74
2023/07/27 06:11:09;;;;;;;10.43;6.30;;;;;;;-148.88;100.00;-17125.47;5013140;28;20361;-74
2023/07/27 06:13:35;;;;;;;9.80;6.78;;;;;;;-148.88;100.00;-17125.47;5013263;28;20022;-74
2023/07/27 06:16:01;;;;;;;8.27;6.38;;;;;;;-148.88;100.00;-17125.47;5013083;28;20471;-74
2023/07/27 06:18:27;;;;;;;9.80;6.60;;;;;;;-148.88;100.00;-17125.47;5011462;28;20508;-74
2023/07/27 06:20:52;;;;;;;10.10;7.07;;;;;;;-148.88;100.00;-17125.47;5012820;28;20026;-74
2023/07/27 06:23:18;;;;;;;9.90;6.95;;;;;;;-148.88;100.00;-17125.47;5012824;28;20496;-74
2023/07/27 06:25:45;;;;;;;10.93;6.70;;;;;;;-148.88;100.00;-17125.47;5012745;28;20041;-74
2023/07/27 06:28:10;;;;;;;9.98;6.68;;;;;;;-148.88;100.00;-17125.47;5011472;28;20040;-74
2023/07/27 06:30:36;;;;;;;9.20;6.80;;;;;;;-148.88;100.00;-17125.47;5013038;28;20018;-74
2023/07/27 06:33:02;;;;;;;9.98;6.55;;;;;;;-148.88;100.00;-17125.47;5012788;28;20030;-74
2023/07/27 06:35:28;;;;;;;9.43;6.35;;;;;;;-148.88;100.00;-17125.47;5012654;28;20025;-74
2023/07/27 06:37:53;;;;;;;9.32;6.10;;;;;;;-148.88;100.00;-17125.47;5012709;28;20080;-74
2023/07/27 06:40:18;;;;;;;11.15;6.35;;;;;;;-148.88;100.00;-17125.47;5012982;28;20032;-74
2023/07/27 06:42:44;;;;;;;7.53;5.95;;;;;;;-148.88;100.00;-17125.47;5013163;28;20026;-74
2023/07/27 06:45:10;;;;;;;10.60;6.28;;;;;;;-148.88;100.00;-17125.47;5016318;28;20030;-74
2023/07/27 06:47:36;;;;;;;9.65;6.03;;;;;;;-148.88;100.00;-17125.47;5014894;28;20041;-74
2023/07/27 06:50:01;;;;;;;8.48;5.82;;;;;;;-148.88;100.00;-17125.47;5016595;28;20026;-73
2023/07/27 06:52:27;;;;;;;9.68;6.68;;;;;;;-148.88;100.00;-17125.47;5016152;28;20481;-74
2023/07/27 06:54:52;;;;;;;9.30;5.93;;;;;;;-148.88;100.00;-17125.47;5016369;28;20503;-74
2023/07/27 06:57:18;;;;;;;10.18;6.00;;;;;;;-148.88;100.00;-17125.47;5015884;28;20014;-74
2023/07/27 06:59:43;;;;;;;8.90;5.90;;;;;;;-148.88;100.00;-17125.47;5016088;28;20030;-74
2023/07/27 07:02:08;;;;;;;9.48;6.10;;;;;;;-148.88;100.00;-17125.47;5016323;28;20022;-74
2023/07/27 07:04:34;;;;;;;9.63;6.15;;;;;;;-148.88;100.00;-17125.47;5015956;28;20022;-74
2023/07/27 07:06:59;;;;;;;8.38;6.00;;;;;;;-148.88;100.00;-17125.47;5015877;28;20101;-74
2023/07/27 07:09:24;;;;;;;9.48;6.28;;;;;;;-148.88;100.00;-17125.47;5015903;28;20113;-74
2023/07/27 07:11:50;;;;;;;9.23;6.72;;;;;;;-148.88;100.00;-17125.47;5016165;28;20080;-74
2023/07/27 07:14:15;;;;;;;8.68;6.97;;;;;;;-148.88;100.00;-17125.47;5015843;28;20029;-74
2023/07/27 07:16:40;;;;;;;9.10;6.10;;;;;;;-148.88;100.00;-17125.47;5015522;28;20498;-74
2023/07/27 07:19:06;;;;;;;10.07;6.40;;;;;;;-148.88;100.00;-17125.47;5015867;28;20041;-74
2023/07/27 07:21:31;;;;;;;10.90;6.75;;;;;;;-148.88;100.00;-17125.47;5014414;28;20076;-74
2023/07/27 07:23:56;;;;;;;10.10;6.30;;;;;;;-148.88;100.00;-17125.47;5015634;28;20022;-74
2023/07/27 07:26:22;;;;;;;9.00;6.13;;;;;;;-148.88;100.00;-17125.47;5015443;28;20076;-73
2023/07/27 07:28:47;;;;;;;7.32;6.03;;;;;;;-148.88;100.00;-17125.47;5015898;28;20503;-74
2023/07/27 07:31:13;;;;;;;11.52;6.57;;;;;;;-148.88;100.00;-17125.47;5015637;28;20404;-74
2023/07/27 07:33:38;;;;;;;11.98;6.40;;;;;;;-148.88;100.00;-17125.47;5015608;28;20026;-74
2023/07/27 07:36:04;;;;;;;8.48;6.25;;;;;;;-148.88;100.00;-17125.47;5015332;28;20156;-74
2023/07/27 07:38:29;;;;;;;8.63;6.03;;;;;;;-148.88;100.00;-17125.47;5015313;28;20116;-74
2023/07/27 07:40:55;;;;;;;10.00;6.57;;;;;;;-148.88;100.00;-17125.47;5014018;28;20083;-74
2023/07/27 07:43:20;;;;;;;10.05;6.13;;;;;;;-148.88;100.00;-17125.47;5015310;28;20026;-74
2023/07/27 07:45:45;;;;;;;8.80;6.03;;;;;;;-148.88;100.00;-17125.47;5015541;28;20029;-74
2023/07/27 07:48:11;;;;;;;7.55;5.68;;;;;;;-148.88;100.00;-17125.47;5015842;28;20061;-74
2023/07/27 07:50:39;;;;;;;12.32;6.03;;;;;;;-148.88;100.00;-17125.47;5015381;28;20061;-74
2023/07/27 07:53:07;;;;;;;7.65;5.60;;;;;;;-148.88;100.00;-17125.47;5013822;28;20404;-75
2023/07/27 07:55:36;;;;;;;8.13;6.35;;;;;;;-148.88;100.00;-17125.47;5014138;28;20522;-74
2023/07/27 07:58:02;;;;;;;10.93;6.88;;;;;;;-148.88;100.00;-17125.47;5015187;28;20026;-75
2023/07/27 08:00:27;;;;;;;9.90;6.13;;;;;;;-148.88;100.00;-17125.47;5015127;28;20042;-74
2023/07/27 08:02:53;;;;;;;9.38;6.25;;;;;;;-148.88;100.00;-17125.47;5014849;28;20032;-74
2023/07/27 08:05:18;;;;;;;10.15;6.25;;;;;;;-148.88;100.00;-17125.47;5015709;28;20018;-74
2023/07/27 08:07:44;;;;;;;8.82;5.88;;;;;;;-148.88;100.00;-17125.47;5014710;28;20114;-75
2023/07/27 08:10:10;;;;;;;8.45;5.93;;;;;;;-148.88;100.00;-17125.47;5014791;28;20491;-74
2023/07/27 08:12:35;;;;;;;8.80;6.45;;;;;;;-148.88;100.00;-17125.47;5015199;28;20105;-75
2023/07/27 08:15:01;;;;;;;8.20;5.75;;;;;;;-148.88;100.00;-17125.47;5013274;28;20103;-74
2023/07/27 08:17:29;;;;;;;12.48;6.60;;;;;;;-148.88;100.00;-17125.47;5013190;28;20096;-74
2023/07/27 08:19:55;;;;;;;9.43;6.53;;;;;;;-148.88;100.00;-17125.47;5014859;28;20032;-74
2023/07/27 08:22:20;;;;;;;9.20;6.85;;;;;;;-148.88;100.00;-17125.47;5013157;28;20026;-74
2023/07/27 08:24:46;;;;;;;9.60;6.38;;;;;;;-148.88;100.00;-17125.47;5013057;28;20017;-74
2023/07/27 08:27:11;;;;;;;9.48;6.90;;;;;;;-148.88;100.00;-17125.47;5014289;28;20156;-74
2023/07/27 08:29:36;;;;;;;10.10;7.05;;;;;;;-148.88;100.00;-17125.47;5013137;28;20072;-74
2023/07/27 08:32:02;;;;;;;9.13;6.72;;;;;;;-148.88;100.00;-17125.47;5014585;28;20100;-74
2023/07/27 08:34:28;;;;;;;10.32;7.10;;;;;;;-148.88;100.00;-17125.47;5014253;28;20071;-74
2023/07/27 08:36:53;;;;;;;10.68;7.15;;;;;;;-148.88;100.00;-17125.47;5014022;28;20524;-74
2023/07/27 08:39:18;;;;;;;11.60;7.47;;;;;;;-148.88;100.00;-17125.47;5014252;28;20037;-74
2023/07/27 08:41:45;;;;;;;8.63;6.57;;;;;;;-148.88;100.00;-17125.47;5014473;28;20025;-74
2023/07/27 08:44:13;;;;;;;8.88;6.68;;;;;;;-148.88;100.00;-17125.47;5014483;28;20076;-74
2023/07/27 08:46:39;;;;;;;9.82;7.22;;;;;;;-148.88;100.00;-17125.47;5013972;28;20021;-74
2023/07/27 08:49:08;;;;;;;12.20;7.60;;;;;;;-148.88;100.00;-17125.47;5012816;28;20040;-73
2023/07/27 08:51:37;;;;;;;11.90;7.53;;;;;;;-148.88;100.00;-17125.47;5014051;28;20118;-74
2023/07/27 08:54:02;;;;;;;9.45;7.32;;;;;;;-148.88;100.00;-17125.47;5013924;28;20096;-74
2023/07/27 08:56:28;;;;;;;9.13;7.18;;;;;;;-148.88;100.00;-17125.47;5012091;28;20156;-74
2023/07/27 08:58:53;;;;;;;11.13;7.50;;;;;;;-148.88;100.00;-17125.47;5012413;28;20416;-75
2023/07/27 09:01:19;;;;;;;12.15;7.45;;;;;;;-148.88;100.00;-17125.47;5014219;28;20053;-74
2023/07/27 09:03:46;;;;;;;10.75;6.70;;;;;;;-148.88;100.00;-17125.47;5013311;28;20022;-74
2023/07/27 09:06:11;;;;;;;8.63;6.78;;;;;;;-148.88;100.00;-17125.47;5013540;28;20440;-74
2023/07/27 09:08:36;;;;;;;9.70;7.15;;;;;;;-148.88;100.00;-17125.47;5013574;28;20021;-73
2023/07/27 09:11:06;;;;;;;10.68;7.32;;;;;;;-148.88;100.00;-17125.47;5011937;28;20032;-74
2023/07/27 09:13:32;;;;;;;10.35;7.15;;;;;;;-148.88;100.00;-17125.47;5013421;28;20428;-74
2023/07/27 09:15:57;;;;;;;10.18;6.97;;;;;;;-148.88;100.00;-17125.47;5013410;28;20021;-74
2023/07/27 09:18:23;;;;;;;9.90;7.53;;;;;;;-148.88;100.00;-17125.47;5013274;28;20101;-74
2023/07/27 09:20:48;;;;;;;9.43;7.30;;;;;;;-148.88;100.00;-17125.47;5013309;28;20036;-74
2023/07/27 09:23:20;;;;;;;7.85;6.57;;;;;;;-148.88;100.00;-17125.47;5013334;28;20034;-73
2023/07/27 09:25:55;;;;;;;9.63;6.88;;;;;;;-148.88;100.00;-17125.47;5013287;28;20535;-73
2023/07/27 09:28:25;;;;;;;8.73;6.47;;;;;;;-148.88;100.00;-17125.47;5013276;28;20496;-74
2023/07/27 09:30:51;;;;;;;9.13;6.55;;;;;;;-148.88;100.00;-17125.47;5013111;28;20070;-73
2023/07/27 09:33:22;;;;;;;11.38;7.05;;;;;;;-148.88;100.00;-17125.47;5013213;28;20041;-73
2023/07/27 09:35:50;;;;;;;10.27;6.38;;;;;;;-148.88;100.00;-17125.47;5013147;28;20527;-73
2023/07/27 09:38:23;;;;;;;8.75;5.97;;;;;;;-148.88;100.00;-17125.47;5013180;28;20037;-73
2023/07/27 09:40:49;;;;;;;7.22;6.05;;;;;;;-148.88;100.00;-17125.47;5013013;28;20026;-73
2023/07/27 09:43:15;;;;;;;8.13;5.50;;;;;;;-148.88;100.00;-17125.47;5013214;28;20033;-73
2023/07/27 09:45:40;;;;;;;10.45;6.45;;;;;;;-148.88;100.00;-17125.47;5014068;28;20072;-74
2023/07/27 09:48:07;;;;;;;8.13;5.63;;;;;;;-148.88;100.00;-17125.47;5013164;28;20028;-74
2023/07/27 09:50:34;;;;;;;8.45;5.65;;;;;;;-148.88;100.00;-17125.47;5013105;28;20384;-74
2023/07/27 09:53:01;;;;;;;8.63;6.45;;;;;;;-148.88;100.00;-17125.47;5013146;28;20459;-74
2023/07/27 09:55:29;;;;;;;7.10;5.65;;;;;;;-148.88;100.00;-17125.47;5013526;28;20061;-73
2023/07/27 09:57:57;;;;;;;7.35;5.65;;;;;;;-148.88;100.00;-17125.47;5013021;28;20034;-74
2023/07/27 10:00:23;;;;;;;6.88;5.50;;;;;;;-148.88;100.00;-17125.47;5012967;28;20064;-73
2023/07/27 10:02:48;;;;;;;6.82;5.15;;;;;;;-148.88;100.00;-17125.47;5013001;28;20108;-73
2023/07/27 10:05:14;;;;;;;6.68;4.65;;;;;;;-148.88;100.00;-17125.47;5013321;28;20037;-74
2023/07/27 10:07:41;;;;;;;6.75;5.15;;;;;;;-148.88;100.00;-17125.47;5012909;28;20029;-74
2023/07/27 10:10:33;;;;;;;5.80;5.18;;;;;;;-148.88;100.00;-17125.47;5012939;28;20030;-73
2023/07/27 10:13:05;;;;;;;7.82;5.20;;;;;;;-148.88;100.00;-17125.47;5013440;28;20072;-74
2023/07/27 10:15:30;;;;;;;6.18;4.90;;;;;;;-148.88;100.00;-17125.47;5013139;28;20033;-74
2023/07/27 10:17:58;;;;;;;6.47;5.07;;;;;;;-148.88;100.00;-17125.47;5013777;28;20037;-74
2023/07/27 10:20:29;;;;;;;5.00;4.05;;;;;;;-148.88;100.00;-17125.47;5017304;28;20036;-74
2023/07/27 10:23:17;;;;;;;6.55;5.00;;;;;;;-148.88;100.00;-17125.47;5017079;28;20084;-74
2023/07/27 10:25:57;;;;;;;8.23;6.95;;;;;;;-148.88;100.00;-17125.47;5017227;28;20484;-74
2023/07/27 10:28:43;;;;;;;6.38;5.13;;;;;;;-148.88;100.00;-17125.47;5015525;28;20038;-74
2023/07/27 10:31:26;;;;;;;6.95;5.85;;;;;;;-148.88;100.00;-17125.47;5015736;28;20033;-74
2023/07/27 10:34:07;;;;;;;5.00;4.50;;;;;;;-148.88;100.00;-17125.47;5015608;28;20489;-75
2023/07/27 10:36:48;;;;;;;5.78;3.75;;;;;;;-148.88;100.00;-17125.47;5016660;28;20030;-74
2023/07/27 10:39:22;;;;;;;4.32;3.58;;;;;;;-148.88;100.00;-17125.47;5016719;28;20048;-74
2023/07/27 10:41:59;;;;;;;3.78;3.13;;;;;;;-148.88;100.00;-17125.47;5016932;28;20026;-74
2023/07/27 10:44:26;;;;;;;3.90;3.10;;;;;;;-148.88;100.00;-17125.47;5016598;28;20104;-74
2023/07/27 10:46:55;;;;;;;3.90;3.40;;;;;;;-148.88;100.00;-17125.47;5016653;28;20022;-74
2023/07/27 10:49:20;;;;;;;5.60;3.78;;;;;;;-148.88;100.00;-17125.47;5016709;28;20022;-74
2023/07/27 10:51:46;;;;;;;4.75;3.00;;;;;;;-148.88;100.00;-17125.47;5016976;28;20113;-74
2023/07/27 10:54:12;;;;;;;4.90;3.00;;;;;;;-148.88;100.00;-17125.47;5015166;28;20373;-74
2023/07/27 10:56:40;;;;;;;3.83;3.42;;;;;;;-148.88;100.00;-17125.47;5016213;28;20071;-74
2023/07/27 10:59:10;;;;;;;5.97;5.10;;;;;;;-148.88;100.00;-17125.47;5016244;28;20113;-75